This is the latest recevied weather packets stored in our database for station/object MIDVIL-WX. If no packets are shown the sender has not sent any weather packets the latest 1 day(s).
| Time | Temp. | Humidity | Pressure | Rain* | Wind** | Luminosity | Snow |
|---|---|---|---|---|---|---|---|
| 1777991447 | 10.56° C | 48% | 980.5 hPa | 0 mm | 5.81 m/s, 271° | - | - |
| 1777990528 | 10.56° C | 48% | 980.4 hPa | 0 mm | 5.36 m/s, 271° | - | - |
| 1777989661 | 10.56° C | 48% | 980.4 hPa | 0 mm | 4.92 m/s, 273° | - | - |
| 1777988728 | 10.56° C | 59% | 980.4 hPa | 0 mm | 4.47 m/s, 277° | - | - |
| 1777987847 | 10.56° C | 59% | 980.4 hPa | 0 mm | 5.81 m/s, 295° | - | - |
| 1777986928 | 10.56° C | 59% | 980.4 hPa | 0 mm | 5.81 m/s, 290° | - | - |
| 1777986057 | 10.56° C | 59% | 980.5 hPa | 0 mm | 4.92 m/s, 291° | - | - |
| 1777985127 | 11.11° C | 72% | 979.7 hPa | 0 mm | 4.02 m/s, 306° | - | - |
| 1777984247 | 10.56° C | 71% | 978 hPa | 0 mm | 3.58 m/s, 310° | - | - |
| 1777983327 | 10° C | 71% | 978 hPa | 0 mm | 3.58 m/s, 312° | - | - |
| 1777982464 | 9.44° C | 71% | 978 hPa | 0 mm | 3.58 m/s, 290° | - | - |
| 1777981528 | 9.44° C | 72% | 978.1 hPa | 0 mm | 4.02 m/s, 282° | - | - |
| 1777980645 | 9.44° C | 67% | 976.6 hPa | 0 mm | 4.02 m/s, 288° | - | - |
| 1777979727 | 10° C | 67% | 976.6 hPa | 0 mm | 2.68 m/s, 285° | - | - |
| 1777978860 | 10° C | 67% | 976.6 hPa | 0 mm | 2.68 m/s, 278° | - | - |
| 1777977927 | 10° C | 58% | 975.1 hPa | 0 mm | 3.13 m/s, 273° | - | - |
| 1777977046 | 10° C | 58% | 975 hPa | 0 mm | 3.13 m/s, 261° | - | - |
| 1777976127 | 10° C | 58% | 975 hPa | 0 mm | 3.13 m/s, 254° | - | - |
| 1777975259 | 10° C | 58% | 975 hPa | 0 mm | 3.13 m/s, 257° | - | - |
| 1777974327 | 10.56° C | 64% | 975.3 hPa | 0 mm | 3.13 m/s, 257° | - | - |
| 1777973449 | 11.11° C | 67% | 975 hPa | 0 mm | 2.68 m/s, 262° | - | - |
| 1777972527 | 10.56° C | 67% | 975 hPa | 0 mm | 3.58 m/s, 244° | - | - |
| 1777971662 | 10.56° C | 67% | 975 hPa | 0 mm | 3.13 m/s, 243° | - | - |
| 1777970725 | 11.67° C | 75% | 975.4 hPa | 0 mm | 2.68 m/s, 261° | - | - |
| 1777969846 | 11.11° C | 80% | 974.7 hPa | 0 mm | 2.68 m/s, 255° | - | - |
* Rain latest hour (hover to see other rain measurements)
** Current wind speed in m/s (hover to see current wind gust speed)